Time;durP1;ratioP1;P1;durP2;ratioP2;P2;SDS_P1;SDS_P2;PMS_P1;PMS_P2;Temp;Humidity;BMP_temperature;BMP_pressure;BME280_temperature;BME280_humidity;BME280_pressure;Samples;Min_cycle;Max_cycle;Signal;HPM_P1;HPM_P2
2022/12/28 00:01:46;;;;;;;12.70;4.22;;;;;;;4.99;100.00;101567.97;6249816;22;20052;-76
2022/12/28 00:04:16;;;;;;;5.13;3.95;;;;;;;4.98;100.00;101561.19;6249856;22;20023;-76
2022/12/28 00:06:44;;;;;;;5.13;3.80;;;;;;;5.00;100.00;101553.63;6249470;22;20020;-76
2022/12/28 00:09:11;;;;;;;6.82;4.45;;;;;;;4.99;100.00;101536.28;6250180;22;20181;-77
2022/12/28 00:11:38;;;;;;;6.40;3.75;;;;;;;4.98;100.00;101532.91;6250543;22;20024;-77
2022/12/28 00:14:05;;;;;;;10.38;3.88;;;;;;;4.99;100.00;101536.28;6249793;22;20020;-77
2022/12/28 00:16:36;;;;;;;6.53;3.17;;;;;;;4.98;100.00;101527.63;6250380;22;20017;-78
2022/12/28 00:19:05;;;;;;;8.45;3.90;;;;;;;4.98;100.00;101524.22;6249674;22;20099;-77
2022/12/28 00:21:33;;;;;;;8.23;3.85;;;;;;;4.97;100.00;101514.81;6249867;22;20023;-77
2022/12/28 00:24:00;;;;;;;10.73;4.05;;;;;;;4.96;100.00;101511.41;6248240;22;20023;-77
2022/12/28 00:26:30;;;;;;;6.50;4.18;;;;;;;4.97;100.00;101496.34;6250211;22;20455;-77
2022/12/28 00:28:57;;;;;;;8.18;3.92;;;;;;;4.97;100.00;101494.44;6247359;22;20025;-77
2022/12/28 00:31:31;;;;;;;8.15;3.90;;;;;;;4.99;100.00;101492.19;6222762;22;20023;-77
2022/12/28 00:33:57;;;;;;;11.07;3.55;;;;;;;4.99;100.00;101486.91;6249260;22;20067;-77
2022/12/28 00:36:24;;;;;;;7.65;3.13;;;;;;;5.00;100.00;101479.75;6222102;22;20027;-77
2022/12/28 00:39:11;;;;;;;6.68;3.72;;;;;;;5.01;100.00;101468.06;6249882;22;20023;-77
2022/12/28 00:41:37;;;;;;;8.30;3.55;;;;;;;5.01;100.00;101466.16;6250184;22;20016;-78
2022/12/28 00:44:06;;;;;;;4.57;3.17;;;;;;;5.01;100.00;101455.63;6249615;22;20079;-77
2022/12/28 00:46:33;;;;;;;6.35;3.30;;;;;;;5.04;100.00;101459.38;6249924;22;20023;-77
2022/12/28 00:48:59;;;;;;;5.93;3.38;;;;;;;5.06;100.00;101459.00;6249151;22;20021;-77
2022/12/28 00:51:26;;;;;;;6.25;4.30;;;;;;;5.06;100.00;101453.72;6222425;22;20051;-77
2022/12/28 00:53:52;;;;;;;6.95;3.95;;;;;;;5.07;100.00;101452.56;6249342;22;20051;-77
2022/12/28 00:56:21;;;;;;;2.97;2.67;;;;;;;5.07;100.00;101437.50;6249999;22;20025;-77
2022/12/28 00:58:48;;;;;;;6.13;3.63;;;;;;;5.08;100.00;101436.34;6249842;22;20009;-77
2022/12/28 01:01:20;;;;;;;5.78;3.60;;;;;;;5.11;100.00;101432.94;6222684;22;20016;-77
2022/12/28 01:03:49;;;;;;;4.75;3.15;;;;;;;5.12;100.00;101423.91;6249279;22;20067;-77
2022/12/28 01:06:18;;;;;;;5.40;3.88;;;;;;;5.14;100.00;101411.06;6249041;22;20021;-77
2022/12/28 01:08:45;;;;;;;3.78;3.45;;;;;;;5.16;100.00;101419.34;6249433;22;20020;-77
2022/12/28 01:11:27;;;;;;;5.13;3.40;;;;;;;5.17;100.00;101397.09;6249717;22;20017;-77
2022/12/28 01:13:56;;;;;;;4.47;3.33;;;;;;;5.19;100.00;101392.19;6222369;22;20016;-77
2022/12/28 01:16:25;;;;;;;7.53;3.90;;;;;;;5.23;100.00;101386.88;6222116;22;20420;-77
2022/12/28 01:18:54;;;;;;;6.88;4.07;;;;;;;5.24;100.00;101383.84;6246639;22;20020;-77
2022/12/28 01:21:23;;;;;;;5.05;3.70;;;;;;;5.26;100.00;101376.28;6249801;22;20019;-77
2022/12/28 01:23:53;;;;;;;10.07;3.63;;;;;;;5.27;100.00;101372.50;6246813;22;20021;-78
2022/12/28 01:26:20;;;;;;;5.53;3.63;;;;;;;5.31;100.00;101375.13;6222520;22;20017;-77
2022/12/28 01:28:47;;;;;;;5.80;3.95;;;;;;;5.33;100.00;101378.13;6249546;22;20032;-77
2022/12/28 01:31:17;;;;;;;5.25;4.25;;;;;;;5.34;100.00;101369.81;6249726;22;20012;-77
2022/12/28 01:33:44;;;;;;;4.03;3.60;;;;;;;5.35;100.00;101373.22;6248570;22;20437;-78
2022/12/28 01:36:13;;;;;;;5.45;3.97;;;;;;;5.38;100.00;101377.72;6249164;22;20017;-78
2022/12/28 01:38:40;;;;;;;5.97;4.10;;;;;;;5.41;100.00;101376.19;6222002;22;20469;-78
2022/12/28 01:41:11;;;;;;;8.90;3.92;;;;;;;5.41;100.00;101363.75;6222024;22;20021;-78
2022/12/28 01:43:42;;;;;;;10.45;5.10;;;;;;;5.44;100.00;101370.91;6249827;22;20332;-78
2022/12/28 01:46:15;;;;;;;4.40;3.70;;;;;;;5.45;100.00;101364.47;6249317;22;20016;-77
2022/12/28 01:48:56;;;;;;;5.95;3.92;;;;;;;5.47;100.00;101364.84;6246475;22;20473;-76
2022/12/28 01:51:24;;;;;;;9.75;3.67;;;;;;;5.47;100.00;101354.28;6249587;22;20091;-76
2022/12/28 01:53:53;;;;;;;4.85;3.70;;;;;;;5.49;100.00;101348.63;6221485;22;20013;-76
2022/12/28 01:56:21;;;;;;;9.68;3.90;;;;;;;5.50;100.00;101347.47;6249338;22;20482;-76
2022/12/28 01:58:50;;;;;;;4.80;3.88;;;;;;;5.51;100.00;101346.34;6221350;22;20021;-76
2022/12/28 02:01:16;;;;;;;4.65;3.60;;;;;;;5.52;100.00;101338.03;6249460;22;20024;-76
2022/12/28 02:03:43;;;;;;;4.38;4.05;;;;;;;5.54;100.00;101327.81;6248320;22;20051;-76
2022/12/28 02:06:11;;;;;;;7.15;4.28;;;;;;;5.54;100.00;101317.25;6247175;22;20079;-76
2022/12/28 02:08:42;;;;;;;10.23;4.22;;;;;;;5.54;100.00;101321.78;6249338;22;20020;-76
2022/12/28 02:11:12;;;;;;;6.95;4.10;;;;;;;5.54;100.00;101319.16;6248917;22;20511;-76
2022/12/28 02:13:43;;;;;;;6.75;4.32;;;;;;;5.54;100.00;101304.06;6249101;22;20040;-76
2022/12/28 02:16:10;;;;;;;6.82;3.97;;;;;;;5.54;100.00;101285.56;6222276;22;20028;-76
2022/12/28 02:18:42;;;;;;;5.55;4.22;;;;;;;5.55;100.00;101288.97;6248564;22;20095;-75
2022/12/28 02:21:38;;;;;;;5.47;4.50;;;;;;;5.55;100.00;101287.06;6248728;22;20442;-76
2022/12/28 02:24:29;;;;;;;4.32;3.83;;;;;;;5.56;100.00;101280.66;6248925;22;20590;-76
2022/12/28 02:27:08;;;;;;;5.40;4.50;;;;;;;5.58;100.00;101272.34;6248748;22;20428;-76
2022/12/28 02:29:34;;;;;;;7.60;4.47;;;;;;;5.59;100.00;101274.59;6249092;22;20017;-76
2022/12/28 02:32:13;;;;;;;4.78;4.30;;;;;;;5.60;100.00;101259.44;6247973;22;20031;-75
2022/12/28 02:34:43;;;;;;;9.02;4.68;;;;;;;5.61;100.00;101272.28;6248917;22;20086;-76
2022/12/28 02:37:17;;;;;;;5.20;4.68;;;;;;;5.63;100.00;101256.78;6223120;22;20024;-76
2022/12/28 02:39:51;;;;;;;4.65;4.00;;;;;;;5.64;100.00;101254.88;6249672;22;20017;-76
2022/12/28 02:42:19;;;;;;;5.13;4.07;;;;;;;5.66;100.00;101253.34;6250817;22;20023;-76
2022/12/28 02:50:17;;;;;;;5.15;4.47;;;;;;;5.74;100.00;101254.03;6250718;22;20530;-76
2022/12/28 02:52:54;;;;;;;5.47;4.35;;;;;;;5.76;100.00;101253.66;6250319;22;20023;-76
2022/12/28 02:56:08;;;;;;;9.10;4.57;;;;;;;5.78;100.00;101243.44;6223622;22;20023;-75
2022/12/28 02:58:55;;;;;;;5.65;4.10;;;;;;;5.78;100.00;101227.59;6223530;22;20028;-76
2022/12/28 03:01:36;;;;;;;5.07;3.80;;;;;;;5.79;100.00;101240.41;6250139;22;20012;-76
2022/12/28 03:04:17;;;;;;;4.93;4.53;;;;;;;5.81;100.00;101243.41;6248256;22;20016;-75
2022/12/28 03:10:19;;;;;;;6.90;4.30;;;;;;;5.85;100.00;101232.78;6222332;22;20031;-75
2022/12/28 03:12:56;;;;;;;7.45;4.47;;;;;;;5.86;100.00;101232.41;6223241;22;20466;-75
2022/12/28 03:15:31;;;;;;;5.05;4.45;;;;;;;5.86;100.00;101208.63;6223056;22;20040;-75
2022/12/28 03:32:24;;;;;;;8.88;4.75;;;;;;;5.93;100.00;101211.22;6250419;22;20118;-75
2022/12/28 03:34:51;;;;;;;8.48;4.68;;;;;;;5.95;100.00;101203.66;6248135;22;20091;-76
2022/12/28 03:37:37;;;;;;;8.18;4.78;;;;;;;5.97;100.00;101211.19;6248598;22;20017;-76
2022/12/28 03:40:29;;;;;;;5.90;4.85;;;;;;;5.99;100.00;101206.25;6222645;22;20485;-75
2022/12/28 03:46:30;;;;;;;7.32;5.03;;;;;;;6.02;100.00;101203.53;6221927;22;20019;-75
2022/12/28 03:48:58;;;;;;;5.78;5.15;;;;;;;6.03;100.00;101194.47;6160994;23;20104;-75
2022/12/28 03:51:27;;;;;;;5.13;4.63;;;;;;;6.07;100.00;101183.09;6161742;23;20068;-75
2022/12/28 03:53:54;;;;;;;6.55;5.28;;;;;;;6.08;100.00;101179.31;6160916;23;20080;-75
2022/12/28 03:56:24;;;;;;;7.15;5.75;;;;;;;6.08;100.00;101193.28;6186763;23;20018;-75
2022/12/28 03:58:53;;;;;;;7.45;6.47;;;;;;;6.10;100.00;101171.72;6185669;23;20462;-75
2022/12/28 04:01:23;;;;;;;7.00;5.88;;;;;;;6.12;100.00;101180.75;6161136;23;20065;-75
2022/12/28 04:03:49;;;;;;;6.30;5.72;;;;;;;6.14;100.00;101173.19;6160776;23;20027;-75
2022/12/28 04:06:18;;;;;;;7.40;5.60;;;;;;;6.15;100.00;101160.72;6186893;23;20037;-75
2022/12/28 04:08:46;;;;;;;6.57;5.75;;;;;;;6.17;100.00;101166.34;6186128;23;20182;-75
2022/12/28 04:11:13;;;;;;;8.07;5.95;;;;;;;6.19;100.00;101177.28;6185937;23;20479;-75
2022/12/28 04:13:43;;;;;;;6.88;6.18;;;;;;;6.22;100.00;101168.56;6161245;23;20424;-76
2022/12/28 04:16:13;;;;;;;6.30;5.80;;;;;;;6.24;100.00;101176.84;6161136;23;20431;-76
2022/12/28 04:18:41;;;;;;;6.20;5.70;;;;;;;6.26;100.00;101170.00;6186091;23;20053;-75
2022/12/28 04:21:12;;;;;;;6.72;6.00;;;;;;;6.29;100.00;101160.53;6186183;23;20496;-75
2022/12/28 04:23:40;;;;;;;7.95;5.80;;;;;;;6.30;100.00;101154.84;6211764;22;20406;-75
2022/12/28 04:26:16;;;;;;;9.45;6.15;;;;;;;6.31;100.00;101166.91;6223229;22;20375;-75
2022/12/28 04:28:44;;;;;;;7.45;6.75;;;;;;;6.34;100.00;101147.63;6222131;22;20023;-75
2022/12/28 04:31:17;;;;;;;6.90;6.15;;;;;;;6.38;100.00;101152.09;6249869;22;20195;-75
2022/12/28 04:33:50;;;;;;;7.03;6.40;;;;;;;6.39;100.00;101148.31;6222420;22;20099;-75
2022/12/28 04:36:17;;;;;;;6.85;5.93;;;;;;;6.42;100.00;101142.94;6223032;22;20414;-75
2022/12/28 04:38:47;;;;;;;8.05;6.40;;;;;;;6.44;100.00;101143.28;6222954;22;20017;-75
2022/12/28 04:41:14;;;;;;;7.30;6.68;;;;;;;6.46;100.00;101145.53;6249966;22;20461;-76
2022/12/28 04:43:40;;;;;;;6.65;6.10;;;;;;;6.48;100.00;101145.88;6249448;22;20023;-75
2022/12/28 04:46:11;;;;;;;9.18;6.82;;;;;;;6.50;100.00;101133.75;6249905;22;20100;-75
2022/12/28 04:48:38;;;;;;;9.85;6.63;;;;;;;6.52;100.00;101136.00;6250144;22;20497;-75
2022/12/28 04:51:25;;;;;;;9.30;6.97;;;;;;;6.53;100.00;101134.84;6249614;22;20017;-76
2022/12/28 04:53:52;;;;;;;9.43;7.90;;;;;;;6.56;100.00;101136.69;6249429;22;20024;-75
2022/12/28 04:56:21;;;;;;;8.02;7.10;;;;;;;6.57;100.00;101119.69;6249542;22;20017;-75
2022/12/28 04:58:47;;;;;;;7.50;6.80;;;;;;;6.58;100.00;101114.00;6249447;22;20017;-75
2022/12/28 05:01:17;;;;;;;9.23;6.82;;;;;;;6.59;100.00;101114.75;6249885;22;20017;-76
2022/12/28 05:03:46;;;;;;;13.00;7.22;;;;;;;6.61;100.00;101110.53;6249629;22;20031;-76
2022/12/28 05:06:22;;;;;;;6.05;5.32;;;;;;;6.65;100.00;101089.31;6250141;22;20488;-75
2022/12/28 05:08:49;;;;;;;13.75;6.45;;;;;;;6.69;100.00;101106.63;6249390;22;20434;-76
2022/12/28 05:11:22;;;;;;;8.98;6.60;;;;;;;6.71;100.00;101106.25;6248929;22;20347;-76
2022/12/28 05:13:48;;;;;;;7.82;6.68;;;;;;;6.74;100.00;101099.38;6249205;22;20044;-75
2022/12/28 05:16:18;;;;;;;9.55;6.88;;;;;;;6.74;100.00;101105.44;6249859;22;20019;-76
2022/12/28 05:18:45;;;;;;;8.32;7.00;;;;;;;6.75;100.00;101103.53;6249458;22;20017;-76
2022/12/28 05:21:17;;;;;;;8.00;7.25;;;;;;;6.76;100.00;101102.38;6249763;22;20055;-76
2022/12/28 05:23:44;;;;;;;;;;;;;;;6.78;100.00;101114.06;6250055;22;20017;-75
2022/12/28 05:26:13;;;;;;;7.30;6.22;;;;;;;6.80;100.00;101113.66;6249058;22;19943;-76
2022/12/28 05:28:40;;;;;;;11.32;6.32;;;;;;;6.83;100.00;101104.88;6249722;22;20012;-76
2022/12/28 05:31:10;;;;;;;8.95;6.40;;;;;;;6.86;100.00;101109.38;6249459;22;20469;-76
2022/12/28 05:33:37;;;;;;;5.82;5.28;;;;;;;6.86;100.00;101104.81;6249402;22;20017;-76
2022/12/28 05:36:07;;;;;;;7.28;6.57;;;;;;;6.91;100.00;101103.63;6249249;22;20013;-76
2022/12/28 05:38:34;;;;;;;7.28;5.72;;;;;;;6.91;100.00;101100.97;6249888;22;20012;-76
2022/12/28 05:41:14;;;;;;;8.70;6.75;;;;;;;6.92;100.00;101097.91;6248084;22;20505;-76
2022/12/28 05:43:42;;;;;;;7.03;5.97;;;;;;;6.92;100.00;101097.91;6248768;22;20458;-76
2022/12/28 05:46:12;;;;;;;8.10;6.40;;;;;;;6.95;100.00;101102.41;6249240;22;20405;-76
2022/12/28 05:48:40;;;;;;;10.18;6.30;;;;;;;6.95;100.00;101102.41;6249607;22;20091;-76
2022/12/28 05:51:09;;;;;;;7.43;5.53;;;;;;;6.97;100.00;101094.81;6248781;22;20047;-76
2022/12/28 05:53:36;;;;;;;9.50;5.57;;;;;;;7.00;100.00;101094.00;6222288;22;20134;-76
2022/12/28 05:56:05;;;;;;;5.88;5.18;;;;;;;7.02;100.00;101098.88;6246156;22;20051;-76
2022/12/28 05:58:40;;;;;;;5.38;4.78;;;;;;;7.05;100.00;101102.63;6249354;22;20048;-75
2022/12/28 06:01:10;;;;;;;5.38;4.88;;;;;;;7.06;100.00;101104.13;6249291;22;20027;-76
2022/12/28 06:03:38;;;;;;;6.20;5.60;;;;;;;7.06;100.00;101096.19;6249248;22;20040;-76
2022/12/28 06:06:06;;;;;;;8.15;5.18;;;;;;;7.07;100.00;101103.72;6249327;22;20025;-76
2022/12/28 06:08:33;;;;;;;9.32;5.25;;;;;;;7.09;100.00;101100.66;6249246;22;20013;-76
2022/12/28 06:11:04;;;;;;;5.50;4.97;;;;;;;7.09;100.00;101098.75;6249318;22;20013;-76
2022/12/28 06:13:31;;;;;;;5.18;4.72;;;;;;;7.11;100.00;101093.06;6250925;22;20051;-76
2022/12/28 06:16:07;;;;;;;5.55;4.57;;;;;;;7.13;100.00;101096.06;6250072;22;20013;-76
2022/12/28 06:18:35;;;;;;;5.25;4.82;;;;;;;7.15;100.00;101099.78;6223754;22;20017;-76
2022/12/28 06:21:10;;;;;;;6.30;5.25;;;;;;;7.17;100.00;101100.13;6222852;22;20116;-76
2022/12/28 06:23:36;;;;;;;4.15;3.80;;;;;;;7.21;100.00;101092.09;6250237;22;20028;-76
2022/12/28 06:26:04;;;;;;;4.30;3.90;;;;;;;7.23;100.00;101098.47;6248387;22;20387;-76
2022/12/28 06:28:31;;;;;;;4.57;4.18;;;;;;;7.25;100.00;101090.88;6250796;22;20036;-76
2022/12/28 06:31:06;;;;;;;5.88;3.83;;;;;;;7.28;100.00;101094.63;6222539;22;20021;-76
2022/12/28 06:33:33;;;;;;;6.13;4.30;;;;;;;7.28;100.00;101107.84;6250641;22;20461;-77
2022/12/28 06:36:00;;;;;;;6.53;4.57;;;;;;;7.30;100.00;101097.59;6250234;22;20140;-77
2022/12/28 06:38:30;;;;;;;6.22;4.63;;;;;;;7.34;100.00;101088.44;6249739;22;20013;-76
2022/12/28 06:41:04;;;;;;;3.97;3.78;;;;;;;7.36;100.00;101093.34;6249137;22;20431;-77
2022/12/28 06:43:41;;;;;;;4.43;4.03;;;;;;;7.39;100.00;101089.88;6248842;22;20021;-76
2022/12/28 06:46:08;;;;;;;4.72;4.32;;;;;;;7.40;100.00;101083.41;6249909;22;20497;-76
2022/12/28 06:48:35;;;;;;;4.97;4.43;;;;;;;7.43;100.00;101089.81;6223618;22;20517;-76
2022/12/28 06:51:09;;;;;;;4.97;4.10;;;;;;;7.45;100.00;101088.25;6249664;22;20465;-76
2022/12/28 06:53:36;;;;;;;6.65;3.92;;;;;;;7.47;100.00;101080.63;6249738;22;20025;-75
2022/12/28 06:56:18;;;;;;;3.78;3.47;;;;;;;7.48;100.00;101071.53;6249828;22;20410;-76
2022/12/28 06:58:46;;;;;;;4.20;3.90;;;;;;;7.50;100.00;101079.06;6250556;22;20009;-75
2022/12/28 07:01:18;;;;;;;4.38;3.75;;;;;;;7.52;100.00;101066.91;6250180;22;20040;-76
2022/12/28 07:03:45;;;;;;;5.30;3.47;;;;;;;7.54;100.00;101069.91;6250205;22;20457;-76
2022/12/28 07:06:14;;;;;;;3.63;3.33;;;;;;;7.55;100.00;101070.63;6250173;22;20450;-75
2022/12/28 07:08:42;;;;;;;6.72;3.53;;;;;;;7.58;100.00;101059.22;6249780;22;20024;-76
2022/12/28 07:11:15;;;;;;;3.50;3.30;;;;;;;7.59;100.00;101055.41;6249609;22;20044;-76
2022/12/28 07:13:41;;;;;;;4.97;3.63;;;;;;;7.59;100.00;101058.81;6250308;22;20017;-76
2022/12/28 07:16:16;;;;;;;5.63;3.70;;;;;;;7.62;100.00;101073.13;6249845;22;20079;-76
2022/12/28 07:18:43;;;;;;;4.80;3.28;;;;;;;7.64;100.00;101065.50;6223093;22;20099;-78
2022/12/28 07:21:16;;;;;;;4.15;3.83;;;;;;;7.64;100.00;101066.25;6249826;22;20470;-76
2022/12/28 07:23:42;;;;;;;3.80;3.47;;;;;;;7.65;100.00;101062.44;6250258;22;20016;-76
2022/12/28 07:26:12;;;;;;;4.07;3.60;;;;;;;7.66;100.00;101058.66;6248632;22;20016;-76
2022/12/28 07:28:40;;;;;;;4.53;3.28;;;;;;;7.69;100.00;101071.06;6248556;22;20012;-77
2022/12/28 07:31:10;;;;;;;4.25;3.28;;;;;;;7.73;100.00;101072.91;6249690;22;20114;-75
2022/12/28 07:33:37;;;;;;;4.47;4.05;;;;;;;7.75;100.00;101073.25;6250388;22;20021;-78
2022/12/28 07:36:06;;;;;;;6.70;3.67;;;;;;;7.77;100.00;101074.31;6249579;22;20411;-78
2022/12/28 07:38:33;;;;;;;4.32;3.50;;;;;;;7.78;100.00;101080.38;6223357;22;20021;-76
2022/12/28 07:41:12;;;;;;;4.10;3.72;;;;;;;7.79;100.00;101072.00;6249061;22;20052;-78
2022/12/28 07:43:38;;;;;;;4.45;3.80;;;;;;;7.80;100.00;101073.50;6250295;22;20024;-79
2022/12/28 07:46:11;;;;;;;4.68;3.75;;;;;;;7.82;100.00;101079.13;6249765;22;20012;-78
2022/12/28 07:48:39;;;;;;;5.57;3.50;;;;;;;7.85;100.00;101080.97;6250325;22;20021;-80
2022/12/28 07:51:12;;;;;;;4.38;3.70;;;;;;;7.86;100.00;101087.03;6222533;22;20017;-79
2022/12/28 07:53:40;;;;;;;4.35;3.30;;;;;;;7.87;100.00;101085.84;6223032;22;20024;-83
2022/12/28 07:56:07;;;;;;;3.47;3.17;;;;;;;7.89;100.00;101083.53;6223044;22;20531;-84
2022/12/28 07:58:34;;;;;;;3.72;3.30;;;;;;;7.90;100.00;101077.09;6223468;22;20012;-79
2022/12/28 08:01:06;;;;;;;3.70;3.33;;;;;;;7.92;100.00;101066.81;6249307;22;20075;-78
2022/12/28 08:03:33;;;;;;;2.90;2.70;;;;;;;7.92;100.00;101080.81;6248518;22;20017;-80
2022/12/28 08:06:08;;;;;;;3.53;3.22;;;;;;;7.95;100.00;101073.94;6247876;22;20080;-81
2022/12/28 08:08:37;;;;;;;3.28;3.08;;;;;;;7.95;100.00;101061.44;6248556;22;20012;-79
2022/12/28 08:11:06;;;;;;;3.53;3.20;;;;;;;7.97;100.00;101068.97;6249501;22;20023;-78
2022/12/28 08:13:35;;;;;;;5.78;3.38;;;;;;;7.99;100.00;101064.75;6250681;22;20017;-77
2022/12/28 08:16:01;;;;;;;3.67;3.38;;;;;;;8.01;100.00;101070.38;6223653;22;20016;-79
2022/12/28 08:18:29;;;;;;;3.88;3.42;;;;;;;8.02;100.00;101063.91;6250995;22;20013;-79
2022/12/28 08:21:04;;;;;;;3.53;3.28;;;;;;;8.05;100.00;101064.97;6249969;22;20012;-78
2022/12/28 08:23:31;;;;;;;4.00;3.70;;;;;;;8.06;100.00;101065.72;6223984;22;20020;-79
2022/12/28 08:26:17;;;;;;;3.70;3.50;;;;;;;8.07;100.00;101072.53;6250772;22;20017;-83
2022/12/28 08:28:46;;;;;;;4.32;3.92;;;;;;;8.06;100.00;101069.13;6224358;22;20021;-83
2022/12/28 08:31:16;;;;;;;3.92;3.72;;;;;;;8.04;100.00;101064.25;6248280;22;20024;-76
2022/12/28 08:33:42;;;;;;;4.47;4.07;;;;;;;8.07;100.00;101072.53;6250126;22;20459;-83
2022/12/28 08:36:09;;;;;;;6.03;4.05;;;;;;;8.06;100.00;101071.03;6223879;22;20478;-83
2022/12/28 08:38:38;;;;;;;4.90;4.50;;;;;;;8.05;100.00;101072.94;6250915;22;20019;-83
2022/12/28 08:41:07;;;;;;;5.80;4.50;;;;;;;8.06;100.00;101063.81;6250073;22;20016;-81
2022/12/28 08:43:33;;;;;;;4.45;4.15;;;;;;;8.05;100.00;101067.63;6250747;22;20028;-81
2022/12/28 08:46:04;;;;;;;5.28;4.30;;;;;;;8.04;100.00;101060.84;6250382;22;20017;-84
2022/12/28 08:48:31;;;;;;;5.00;4.50;;;;;;;8.04;100.00;101066.16;6250273;22;20017;-81
2022/12/28 08:51:10;;;;;;;4.68;4.25;;;;;;;8.05;100.00;101072.94;6250158;22;20024;-80
2022/12/28 08:53:37;;;;;;;5.85;4.45;;;;;;;8.07;100.00;101064.56;6224072;22;20017;-79
2022/12/28 08:56:11;;;;;;;4.45;4.05;;;;;;;8.08;100.00;101072.13;6223118;22;20461;-78
2022/12/28 08:58:39;;;;;;;4.55;3.90;;;;;;;8.09;100.00;101057.69;6251045;22;20016;-78
2022/12/28 09:01:14;;;;;;;3.85;3.65;;;;;;;8.09;100.00;101073.59;6249923;22;20080;-80
2022/12/28 09:03:44;;;;;;;4.40;4.05;;;;;;;8.09;100.00;101068.31;6249664;22;20450;-77
2022/12/28 09:06:14;;;;;;;5.93;3.85;;;;;;;8.09;100.00;101073.59;6250138;22;20017;-79
2022/12/28 09:08:41;;;;;;;4.70;3.92;;;;;;;8.11;100.00;101076.59;6248854;22;20013;-81
2022/12/28 09:11:12;;;;;;;4.25;3.97;;;;;;;8.12;100.00;101072.78;6249905;22;20027;-80
2022/12/28 09:13:39;;;;;;;6.20;3.90;;;;;;;8.15;100.00;101068.56;6250696;22;20016;-79
2022/12/28 09:16:09;;;;;;;4.90;3.75;;;;;;;8.16;100.00;101070.81;6248826;22;20514;-80
2022/12/28 09:18:38;;;;;;;6.95;3.97;;;;;;;8.19;100.00;101069.22;6249825;22;20051;-79
2022/12/28 09:21:07;;;;;;;6.72;3.95;;;;;;;8.19;100.00;101046.09;6249907;22;20020;-78
2022/12/28 09:23:34;;;;;;;4.53;4.13;;;;;;;8.20;100.00;101060.84;6249804;22;20023;-77
2022/12/28 09:26:09;;;;;;;5.15;3.58;;;;;;;8.19;100.00;101067.31;6249355;22;20409;-77
2022/12/28 09:28:36;;;;;;;6.60;4.22;;;;;;;8.18;100.00;101057.88;6250272;22;20047;-77
2022/12/28 09:31:04;;;;;;;5.07;3.90;;;;;;;8.17;100.00;101056.38;6249237;22;20024;-77
2022/12/28 09:36:39;;;;;;;7.47;4.10;;;;;;;8.16;100.00;101060.19;6250062;22;20012;-78
2022/12/28 09:39:08;;;;;;;4.63;4.07;;;;;;;8.17;100.00;101059.03;6249227;22;20017;-78
2022/12/28 09:41:47;;;;;;;5.68;4.90;;;;;;;8.16;100.00;101062.09;6249524;22;20020;-78
2022/12/28 09:44:56;;;;;;;5.45;3.95;;;;;;;8.15;100.00;101063.25;6223291;22;20021;-77
2022/12/28 09:47:50;;;;;;;5.15;4.28;;;;;;;8.15;100.00;101071.97;6186671;23;20104;-77
2022/12/28 09:50:23;;;;;;;5.57;4.25;;;;;;;8.13;100.00;101063.66;6187379;23;20110;-77
2022/12/28 09:53:29;;;;;;;5.03;4.30;;;;;;;8.14;100.00;101062.50;6187094;23;20017;-76
2022/12/28 09:56:30;;;;;;;6.28;4.45;;;;;;;8.15;100.00;101065.91;6187303;23;20113;-77
2022/12/28 09:58:57;;;;;;;7.68;3.83;;;;;;;8.14;100.00;101057.22;6166962;23;20465;-77
2022/12/28 10:01:25;;;;;;;4.57;4.18;;;;;;;8.13;100.00;101057.63;6162204;23;20025;-78
2022/12/28 10:03:54;;;;;;;5.80;4.70;;;;;;;8.11;100.00;101058.03;6186904;23;20018;-77
2022/12/28 10:06:24;;;;;;;6.93;5.65;;;;;;;8.12;100.00;101056.13;6187470;23;20026;-77
2022/12/28 10:08:53;;;;;;;5.60;5.10;;;;;;;8.12;100.00;101059.53;6186911;23;20408;-77
2022/12/28 10:11:27;;;;;;;5.63;5.13;;;;;;;8.11;100.00;101052.72;6160269;23;20158;-81
2022/12/28 10:13:56;;;;;;;8.88;5.93;;;;;;;8.10;100.00;101056.53;6184308;23;20024;-75
2022/12/28 10:16:27;;;;;;;10.07;6.80;;;;;;;8.12;100.00;101054.22;6184144;23;20029;-73
2022/12/28 10:18:54;;;;;;;6.65;6.05;;;;;;;8.11;100.00;101047.44;6236410;22;20318;-78
2022/12/28 10:21:23;;;;;;;6.15;5.65;;;;;;;8.12;100.00;101042.88;6248809;22;20091;-76
2022/12/28 10:23:58;;;;;;;5.78;5.28;;;;;;;8.12;100.00;101034.91;6220917;22;20012;-76
2022/12/28 10:26:45;;;;;;;6.60;4.50;;;;;;;8.12;100.00;101034.91;6250385;22;20023;-76
2022/12/28 10:29:21;;;;;;;8.13;5.32;;;;;;;8.13;100.00;101039.06;6250298;22;20012;-77
2022/12/28 10:32:08;;;;;;;5.57;4.75;;;;;;;8.13;100.00;101036.41;6250241;22;20115;-77
2022/12/28 10:34:35;;;;;;;5.93;4.93;;;;;;;8.13;100.00;101031.09;6248986;22;20017;-77
2022/12/28 10:37:16;;;;;;;5.65;4.97;;;;;;;8.12;100.00;101027.72;6250712;22;20107;-77
2022/12/28 10:39:58;;;;;;;7.00;5.07;;;;;;;8.12;100.00;101030.34;6250998;22;20023;-76
2022/12/28 10:42:36;;;;;;;5.25;4.50;;;;;;;8.12;100.00;101035.66;6251010;22;20012;-76
2022/12/28 10:45:16;;;;;;;5.25;4.75;;;;;;;8.13;100.00;101036.41;6249720;22;20048;-77
2022/12/28 10:47:49;;;;;;;5.03;4.68;;;;;;;8.13;100.00;101033.75;6224382;22;20016;-76
2022/12/28 10:50:38;;;;;;;5.30;4.57;;;;;;;8.12;100.00;101019.75;6250617;22;20398;-76
2022/12/28 10:53:15;;;;;;;6.30;5.00;;;;;;;8.14;100.00;101022.00;6222604;22;20045;-75
2022/12/28 10:55:43;;;;;;;4.07;3.78;;;;;;;8.13;100.00;101029.19;6249787;22;20020;-77
2022/12/28 10:58:22;;;;;;;4.80;4.35;;;;;;;8.14;100.00;101024.63;6249910;22;20017;-80
2022/12/28 11:01:13;;;;;;;5.18;4.68;;;;;;;8.15;100.00;101024.22;6249818;22;20477;-79
2022/12/28 11:03:56;;;;;;;4.75;4.45;;;;;;;8.15;100.00;101012.88;6251053;22;20013;-79
2022/12/28 11:06:27;;;;;;;5.88;4.20;;;;;;;8.16;100.00;101004.50;6250691;22;20043;-79
2022/12/28 11:09:05;;;;;;;5.65;3.80;;;;;;;8.17;100.00;101005.25;6250468;22;20035;-78
2022/12/28 11:11:32;;;;;;;5.00;4.07;;;;;;;8.20;100.00;100997.22;6251000;22;20396;-79
2022/12/28 11:14:05;;;;;;;4.68;4.18;;;;;;;8.20;100.00;100988.50;6250056;22;20450;-77
2022/12/28 11:16:36;;;;;;;3.50;3.28;;;;;;;8.19;100.00;100992.31;6250220;22;20012;-80
2022/12/28 11:19:03;;;;;;;4.10;3.60;;;;;;;8.21;100.00;100984.69;6249962;22;20492;-80
2022/12/28 11:21:32;;;;;;;4.18;3.60;;;;;;;8.22;100.00;100981.63;6223834;22;20051;-78
2022/12/28 11:23:58;;;;;;;3.83;2.85;;;;;;;8.22;100.00;100975.56;6224357;22;20024;-80
2022/12/28 11:26:27;;;;;;;2.95;2.75;;;;;;;8.23;100.00;100988.41;6250773;22;20473;-76
2022/12/28 11:28:53;;;;;;;2.85;2.65;;;;;;;8.23;100.00;100966.47;6223413;22;20028;-76
2022/12/28 11:31:33;;;;;;;2.95;2.60;;;;;;;8.25;100.00;100969.44;6223543;22;20024;-80
2022/12/28 11:34:04;;;;;;;2.97;2.70;;;;;;;8.25;100.00;100967.53;6223890;22;20024;-80
2022/12/28 11:36:37;;;;;;;2.97;2.78;;;;;;;8.25;100.00;100962.22;6249645;22;20023;-77
2022/12/28 11:39:22;;;;;;;3.30;2.80;;;;;;;8.24;100.00;100957.34;6223996;22;20079;-77
2022/12/28 11:41:51;;;;;;;3.10;2.90;;;;;;;8.25;100.00;100953.53;6250354;22;20556;-80
2022/12/28 11:44:37;;;;;;;4.13;3.78;;;;;;;8.26;100.00;100949.72;6250526;22;20078;-79
2022/12/28 11:47:15;;;;;;;3.33;3.03;;;;;;;8.24;100.00;100950.13;6250659;22;20017;-80
2022/12/28 11:49:44;;;;;;;3.38;3.08;;;;;;;8.24;100.00;100954.69;6251054;22;20021;-77
2022/12/28 11:52:19;;;;;;;3.55;2.97;;;;;;;8.25;100.00;100950.88;6223553;22;20028;-77
2022/12/28 11:54:53;;;;;;;4.03;2.63;;;;;;;8.25;100.00;100935.72;6250718;22;20087;-76
2022/12/28 11:57:36;;;;;;;2.60;2.47;;;;;;;8.26;100.00;100939.09;6250007;22;20070;-76
2022/12/28 12:00:18;;;;;;;3.00;2.80;;;;;;;8.27;100.00;100930.00;6250598;22;20020;-76
2022/12/28 12:03:02;;;;;;;2.42;2.22;;;;;;;8.26;100.00;100945.16;6224496;22;20013;-76
2022/12/28 12:05:37;;;;;;;3.05;2.85;;;;;;;8.25;100.00;100927.75;6250746;22;20071;-76
2022/12/28 12:08:10;;;;;;;3.25;2.70;;;;;;;8.25;100.00;100941.00;6250320;22;20348;-75
2022/12/28 12:10:38;;;;;;;3.05;2.65;;;;;;;8.26;100.00;100925.84;6251040;22;20016;-76
2022/12/28 12:13:26;;;;;;;3.28;3.08;;;;;;;8.26;100.00;100934.53;6249431;22;20319;-77
2022/12/28 12:15:58;;;;;;;3.17;2.50;;;;;;;8.26;100.00;100928.50;6223687;22;20052;-78